Aeroporto :







RITROVATECI SU...

 
LOGIN :

Iscrizione | Disclaimer

   EN    FR    IT 

 









Sommario :    VFR   VFR Marginale   IFR   IFR Intensivo   IFR Molto Intensivo
Visibilità : 
Base nubi : 
>= 8 km
>= 3000ft
5 / 8 km
1000 / 3000 ft
1500m / 5 km
500 / 1000 ft
800 / 1500m
200 / 500 ft
< 800m
< 200 ft
Simboli :   Temporali  Nebbia  Neve Forte  Precipitazioni Forti  Vento > 20 kt






- Altitudine del aeroporto : 586 ft
- Codice IATA : YRJ


CYRJ - Roberval

ULTIMO METAR :
  • 211500Z 21010G17KT 40SM SCT050 M13/M20 A3013 RMK SC3 SLP221

METARs OBSOLETI :
  • 211400Z 23014G22KT 40SM DRSN BKN050 M16/M22 A3017 RMK SC7 SLP237
  • 211300Z 22014G22KT 40SM DRSN BKN053 M18/M23 A3018 RMK SC7 SLP242

TAF TAF CYRJ
Valido dal 21 a 13 ore il 22 a 01 ore UTC


211244Z 2113/2201 22012G22KT P6SM SKC
FM211500 22012G22KT P6SM BKN030 RMK NXT FCST BY 212000Z



MetMap, La meteo Aeronautica in un colpo d'occhio ! - Copyright ORBIFLY Dicembre 2007 - Disclaimer

ORBIFLY MET'MAP TEAM :

Programmazione e sviluppo : Alexandra Zaïnal
Concezione : Baudouin d'Aumeries
Aiuto per la programmazione : Marc-Olivier Méhu
Supporto tecnico e logistico : Manuel Goepfert
Aiuto per la traduzione : Arnaldo La Scala

Contatto : metmap@orbifly.com




FONTI E CREDITI :

   NOAA